sensor_id;sensor_type;location;lat;lon;timestamp;P1;durP1;ratioP1;P2;durP2;ratioP2
14681;SDS011;7429;52.498;13.480;2023-02-01T00:01:34;19.70;;;7.67;;
14681;SDS011;7429;52.498;13.480;2023-02-01T00:04:39;21.63;;;7.07;;
14681;SDS011;7429;52.498;13.480;2023-02-01T00:07:42;18.30;;;7.17;;
14681;SDS011;7429;52.498;13.480;2023-02-01T00:10:57;24.13;;;7.77;;
14681;SDS011;7429;52.498;13.480;2023-02-01T00:14:01;26.13;;;7.63;;
14681;SDS011;7429;52.498;13.480;2023-02-01T00:17:05;25.77;;;7.53;;
14681;SDS011;7429;52.498;13.480;2023-02-01T00:20:11;24.80;;;7.73;;
14681;SDS011;7429;52.498;13.480;2023-02-01T00:23:14;23.33;;;7.80;;
14681;SDS011;7429;52.498;13.480;2023-02-01T00:26:18;23.83;;;7.70;;
14681;SDS011;7429;52.498;13.480;2023-02-01T00:29:25;28.17;;;8.57;;
14681;SDS011;7429;52.498;13.480;2023-02-01T00:32:28;22.47;;;7.23;;
14681;SDS011;7429;52.498;13.480;2023-02-01T00:35:34;23.97;;;7.47;;
14681;SDS011;7429;52.498;13.480;2023-02-01T00:38:41;20.40;;;7.00;;
14681;SDS011;7429;52.498;13.480;2023-02-01T00:41:44;20.00;;;6.67;;
14681;SDS011;7429;52.498;13.480;2023-02-01T00:44:47;18.10;;;6.87;;
14681;SDS011;7429;52.498;13.480;2023-02-01T00:47:50;21.03;;;6.73;;
14681;SDS011;7429;52.498;13.480;2023-02-01T00:50:59;21.10;;;6.93;;
14681;SDS011;7429;52.498;13.480;2023-02-01T00:54:03;20.40;;;6.77;;
14681;SDS011;7429;52.498;13.480;2023-02-01T00:57:06;20.53;;;7.17;;
14681;SDS011;7429;52.498;13.480;2023-02-01T01:00:10;16.53;;;6.63;;
14681;SDS011;7429;52.498;13.480;2023-02-01T01:03:14;21.37;;;7.43;;
14681;SDS011;7429;52.498;13.480;2023-02-01T01:06:23;14.60;;;5.90;;
14681;SDS011;7429;52.498;13.480;2023-02-01T01:09:28;16.23;;;6.93;;
14681;SDS011;7429;52.498;13.480;2023-02-01T01:12:31;16.83;;;6.43;;
14681;SDS011;7429;52.498;13.480;2023-02-01T01:15:40;19.00;;;6.03;;
14681;SDS011;7429;52.498;13.480;2023-02-01T01:18:44;17.63;;;5.40;;
14681;SDS011;7429;52.498;13.480;2023-02-01T01:21:51;20.03;;;5.97;;
14681;SDS011;7429;52.498;13.480;2023-02-01T01:24:54;19.70;;;6.47;;
14681;SDS011;7429;52.498;13.480;2023-02-01T01:27:58;18.23;;;5.97;;
14681;SDS011;7429;52.498;13.480;2023-02-01T01:31:02;23.80;;;6.97;;
14681;SDS011;7429;52.498;13.480;2023-02-01T01:34:06;17.50;;;6.00;;
14681;SDS011;7429;52.498;13.480;2023-02-01T01:37:15;17.20;;;6.53;;
14681;SDS011;7429;52.498;13.480;2023-02-01T01:40:18;16.10;;;5.87;;
14681;SDS011;7429;52.498;13.480;2023-02-01T01:43:23;24.87;;;6.07;;
14681;SDS011;7429;52.498;13.480;2023-02-01T01:46:29;19.07;;;6.87;;
14681;SDS011;7429;52.498;13.480;2023-02-01T01:49:35;21.50;;;7.57;;
14681;SDS011;7429;52.498;13.480;2023-02-01T01:52:41;16.37;;;6.53;;
14681;SDS011;7429;52.498;13.480;2023-02-01T01:55:45;25.50;;;7.00;;
14681;SDS011;7429;52.498;13.480;2023-02-01T01:58:51;25.93;;;7.43;;
14681;SDS011;7429;52.498;13.480;2023-02-01T02:01:59;22.17;;;6.23;;
14681;SDS011;7429;52.498;13.480;2023-02-01T02:05:02;23.57;;;7.67;;
14681;SDS011;7429;52.498;13.480;2023-02-01T02:08:08;22.60;;;7.13;;
14681;SDS011;7429;52.498;13.480;2023-02-01T02:11:12;19.43;;;7.07;;
14681;SDS011;7429;52.498;13.480;2023-02-01T02:14:20;19.20;;;6.90;;
14681;SDS011;7429;52.498;13.480;2023-02-01T02:17:29;20.20;;;6.37;;
14681;SDS011;7429;52.498;13.480;2023-02-01T02:20:45;24.33;;;7.00;;
14681;SDS011;7429;52.498;13.480;2023-02-01T02:24:19;13.37;;;5.80;;
14681;SDS011;7429;52.498;13.480;2023-02-01T02:27:43;23.10;;;7.30;;
14681;SDS011;7429;52.498;13.480;2023-02-01T02:30:59;22.40;;;7.07;;
14681;SDS011;7429;52.498;13.480;2023-02-01T02:34:36;18.63;;;6.87;;
14681;SDS011;7429;52.498;13.480;2023-02-01T02:37:45;27.83;;;8.10;;
14681;SDS011;7429;52.498;13.480;2023-02-01T02:41:02;15.60;;;6.67;;
14681;SDS011;7429;52.498;13.480;2023-02-01T02:44:39;26.17;;;6.27;;
14681;SDS011;7429;52.498;13.480;2023-02-01T02:48:11;14.73;;;6.83;;
14681;SDS011;7429;52.498;13.480;2023-02-01T02:51:24;17.37;;;6.57;;
14681;SDS011;7429;52.498;13.480;2023-02-01T02:54:49;31.77;;;8.57;;
14681;SDS011;7429;52.498;13.480;2023-02-01T02:57:59;23.67;;;6.27;;
14681;SDS011;7429;52.498;13.480;2023-02-01T03:01:25;18.87;;;6.87;;
14681;SDS011;7429;52.498;13.480;2023-02-01T03:04:46;18.00;;;7.33;;
14681;SDS011;7429;52.498;13.480;2023-02-01T03:08:03;23.03;;;6.77;;
14681;SDS011;7429;52.498;13.480;2023-02-01T03:11:13;20.73;;;7.77;;
14681;SDS011;7429;52.498;13.480;2023-02-01T03:14:18;23.87;;;7.63;;
14681;SDS011;7429;52.498;13.480;2023-02-01T03:17:24;25.30;;;6.87;;
14681;SDS011;7429;52.498;13.480;2023-02-01T03:20:35;19.37;;;7.73;;
14681;SDS011;7429;52.498;13.480;2023-02-01T03:23:43;19.57;;;6.63;;
14681;SDS011;7429;52.498;13.480;2023-02-01T03:26:49;22.63;;;6.73;;
14681;SDS011;7429;52.498;13.480;2023-02-01T03:30:02;15.93;;;6.43;;
14681;SDS011;7429;52.498;13.480;2023-02-01T03:33:11;21.33;;;7.30;;
14681;SDS011;7429;52.498;13.480;2023-02-01T03:36:28;22.83;;;6.70;;
14681;SDS011;7429;52.498;13.480;2023-02-01T03:39:41;19.93;;;6.70;;
14681;SDS011;7429;52.498;13.480;2023-02-01T03:42:51;17.10;;;6.30;;
14681;SDS011;7429;52.498;13.480;2023-02-01T03:45:58;20.50;;;7.03;;
14681;SDS011;7429;52.498;13.480;2023-02-01T03:49:13;20.20;;;6.37;;
14681;SDS011;7429;52.498;13.480;2023-02-01T03:52:22;27.57;;;7.40;;
14681;SDS011;7429;52.498;13.480;2023-02-01T03:55:30;25.20;;;6.63;;
14681;SDS011;7429;52.498;13.480;2023-02-01T03:58:34;27.97;;;7.63;;
14681;SDS011;7429;52.498;13.480;2023-02-01T04:01:37;22.47;;;6.77;;
14681;SDS011;7429;52.498;13.480;2023-02-01T04:04:41;18.83;;;6.83;;
14681;SDS011;7429;52.498;13.480;2023-02-01T04:07:46;24.20;;;7.20;;
14681;SDS011;7429;52.498;13.480;2023-02-01T04:10:51;26.23;;;6.60;;
14681;SDS011;7429;52.498;13.480;2023-02-01T04:13:54;21.13;;;7.57;;
14681;SDS011;7429;52.498;13.480;2023-02-01T04:16:57;27.67;;;7.07;;
14681;SDS011;7429;52.498;13.480;2023-02-01T04:20:01;20.77;;;7.40;;
14681;SDS011;7429;52.498;13.480;2023-02-01T04:23:08;22.37;;;7.13;;
14681;SDS011;7429;52.498;13.480;2023-02-01T04:26:13;25.50;;;7.10;;
14681;SDS011;7429;52.498;13.480;2023-02-01T04:29:17;28.13;;;7.50;;
14681;SDS011;7429;52.498;13.480;2023-02-01T04:32:20;32.77;;;7.97;;
14681;SDS011;7429;52.498;13.480;2023-02-01T04:35:24;21.83;;;6.17;;
14681;SDS011;7429;52.498;13.480;2023-02-01T04:38:27;19.30;;;6.30;;
14681;SDS011;7429;52.498;13.480;2023-02-01T04:41:34;32.23;;;8.93;;
14681;SDS011;7429;52.498;13.480;2023-02-01T04:44:42;26.17;;;6.63;;
14681;SDS011;7429;52.498;13.480;2023-02-01T04:47:45;25.00;;;6.90;;
14681;SDS011;7429;52.498;13.480;2023-02-01T04:50:50;17.93;;;7.37;;
14681;SDS011;7429;52.498;13.480;2023-02-01T04:53:53;21.63;;;6.63;;
14681;SDS011;7429;52.498;13.480;2023-02-01T04:56:58;21.43;;;7.07;;
14681;SDS011;7429;52.498;13.480;2023-02-01T05:00:02;20.67;;;6.70;;
14681;SDS011;7429;52.498;13.480;2023-02-01T05:03:07;22.27;;;7.07;;
14681;SDS011;7429;52.498;13.480;2023-02-01T05:06:10;13.53;;;5.80;;
14681;SDS011;7429;52.498;13.480;2023-02-01T05:09:16;17.17;;;5.70;;
14681;SDS011;7429;52.498;13.480;2023-02-01T05:12:21;28.37;;;6.57;;
14681;SDS011;7429;52.498;13.480;2023-02-01T05:15:41;20.80;;;6.57;;
14681;SDS011;7429;52.498;13.480;2023-02-01T05:18:45;20.37;;;6.47;;
14681;SDS011;7429;52.498;13.480;2023-02-01T05:21:48;23.00;;;6.87;;
14681;SDS011;7429;52.498;13.480;2023-02-01T05:24:52;22.00;;;6.70;;
14681;SDS011;7429;52.498;13.480;2023-02-01T05:27:59;22.63;;;6.80;;
14681;SDS011;7429;52.498;13.480;2023-02-01T05:31:08;27.33;;;6.43;;
14681;SDS011;7429;52.498;13.480;2023-02-01T05:34:12;25.20;;;6.77;;
14681;SDS011;7429;52.498;13.480;2023-02-01T05:37:16;16.90;;;7.30;;
14681;SDS011;7429;52.498;13.480;2023-02-01T05:40:20;22.40;;;7.70;;
14681;SDS011;7429;52.498;13.480;2023-02-01T05:43:24;24.77;;;6.70;;
14681;SDS011;7429;52.498;13.480;2023-02-01T05:46:28;22.97;;;7.27;;
14681;SDS011;7429;52.498;13.480;2023-02-01T05:49:34;24.33;;;6.97;;
14681;SDS011;7429;52.498;13.480;2023-02-01T05:52:40;20.10;;;6.37;;
14681;SDS011;7429;52.498;13.480;2023-02-01T05:55:51;24.97;;;6.80;;
14681;SDS011;7429;52.498;13.480;2023-02-01T05:58:56;28.67;;;8.47;;
14681;SDS011;7429;52.498;13.480;2023-02-01T06:01:59;20.63;;;6.60;;
14681;SDS011;7429;52.498;13.480;2023-02-01T06:05:02;20.77;;;6.70;;
14681;SDS011;7429;52.498;13.480;2023-02-01T06:08:06;25.07;;;7.30;;
14681;SDS011;7429;52.498;13.480;2023-02-01T06:11:10;19.13;;;7.20;;
14681;SDS011;7429;52.498;13.480;2023-02-01T06:14:33;25.80;;;7.13;;
14681;SDS011;7429;52.498;13.480;2023-02-01T06:17:36;19.33;;;7.77;;
14681;SDS011;7429;52.498;13.480;2023-02-01T06:20:41;20.47;;;8.37;;
14681;SDS011;7429;52.498;13.480;2023-02-01T06:23:44;17.20;;;6.83;;
14681;SDS011;7429;52.498;13.480;2023-02-01T06:26:48;29.40;;;8.83;;
14681;SDS011;7429;52.498;13.480;2023-02-01T06:29:52;23.23;;;8.00;;
14681;SDS011;7429;52.498;13.480;2023-02-01T06:32:57;23.67;;;7.40;;
14681;SDS011;7429;52.498;13.480;2023-02-01T06:36:01;21.73;;;6.83;;
14681;SDS011;7429;52.498;13.480;2023-02-01T06:39:07;25.27;;;7.23;;
14681;SDS011;7429;52.498;13.480;2023-02-01T06:42:10;19.20;;;7.87;;
14681;SDS011;7429;52.498;13.480;2023-02-01T06:45:16;22.53;;;7.33;;
14681;SDS011;7429;52.498;13.480;2023-02-01T06:48:19;20.57;;;8.30;;
14681;SDS011;7429;52.498;13.480;2023-02-01T06:51:23;22.40;;;7.83;;
14681;SDS011;7429;52.498;13.480;2023-02-01T06:54:28;25.17;;;7.77;;
14681;SDS011;7429;52.498;13.480;2023-02-01T06:57:33;23.23;;;8.10;;
14681;SDS011;7429;52.498;13.480;2023-02-01T07:04:19;20.20;;;7.57;;
14681;SDS011;7429;52.498;13.480;2023-02-01T07:07:24;14.27;;;6.13;;
14681;SDS011;7429;52.498;13.480;2023-02-01T07:10:28;16.77;;;7.80;;
14681;SDS011;7429;52.498;13.480;2023-02-01T07:13:32;19.13;;;7.07;;
14681;SDS011;7429;52.498;13.480;2023-02-01T07:16:36;17.23;;;8.53;;
14681;SDS011;7429;52.498;13.480;2023-02-01T07:19:40;31.93;;;8.00;;
14681;SDS011;7429;52.498;13.480;2023-02-01T07:22:46;18.87;;;7.70;;
14681;SDS011;7429;52.498;13.480;2023-02-01T07:25:55;17.63;;;8.13;;
14681;SDS011;7429;52.498;13.480;2023-02-01T07:28:59;20.00;;;8.17;;
14681;SDS011;7429;52.498;13.480;2023-02-01T07:32:04;19.67;;;8.53;;
14681;SDS011;7429;52.498;13.480;2023-02-01T07:35:12;13.67;;;6.93;;
14681;SDS011;7429;52.498;13.480;2023-02-01T07:38:16;18.37;;;7.27;;
14681;SDS011;7429;52.498;13.480;2023-02-01T07:41:20;24.30;;;8.30;;
14681;SDS011;7429;52.498;13.480;2023-02-01T07:44:26;20.63;;;8.90;;
14681;SDS011;7429;52.498;13.480;2023-02-01T07:47:31;22.07;;;7.50;;
14681;SDS011;7429;52.498;13.480;2023-02-01T07:50:34;20.97;;;7.20;;
14681;SDS011;7429;52.498;13.480;2023-02-01T07:53:41;17.13;;;7.63;;
14681;SDS011;7429;52.498;13.480;2023-02-01T07:57:05;29.83;;;6.73;;
14681;SDS011;7429;52.498;13.480;2023-02-01T08:00:59;20.77;;;7.53;;
14681;SDS011;7429;52.498;13.480;2023-02-01T08:04:30;20.13;;;6.70;;
14681;SDS011;7429;52.498;13.480;2023-02-01T08:07:33;21.17;;;10.63;;
14681;SDS011;7429;52.498;13.480;2023-02-01T08:10:36;18.50;;;8.43;;
14681;SDS011;7429;52.498;13.480;2023-02-01T08:13:41;15.20;;;6.70;;
14681;SDS011;7429;52.498;13.480;2023-02-01T08:16:46;19.53;;;7.67;;
14681;SDS011;7429;52.498;13.480;2023-02-01T08:19:51;21.37;;;7.27;;
14681;SDS011;7429;52.498;13.480;2023-02-01T08:22:55;16.53;;;7.13;;
14681;SDS011;7429;52.498;13.480;2023-02-01T08:26:06;17.10;;;6.43;;
14681;SDS011;7429;52.498;13.480;2023-02-01T08:29:11;12.40;;;6.20;;
14681;SDS011;7429;52.498;13.480;2023-02-01T08:32:15;18.93;;;7.90;;
14681;SDS011;7429;52.498;13.480;2023-02-01T08:35:19;21.63;;;6.80;;
14681;SDS011;7429;52.498;13.480;2023-02-01T08:38:36;16.30;;;7.20;;
14681;SDS011;7429;52.498;13.480;2023-02-01T08:41:41;17.53;;;7.67;;
14681;SDS011;7429;52.498;13.480;2023-02-01T08:45:05;15.67;;;7.23;;
14681;SDS011;7429;52.498;13.480;2023-02-01T08:48:10;15.80;;;7.60;;
14681;SDS011;7429;52.498;13.480;2023-02-01T08:51:18;20.77;;;8.67;;
14681;SDS011;7429;52.498;13.480;2023-02-01T08:54:23;20.93;;;10.80;;
14681;SDS011;7429;52.498;13.480;2023-02-01T08:57:27;19.63;;;8.03;;
14681;SDS011;7429;52.498;13.480;2023-02-01T09:00:30;16.37;;;8.33;;
14681;SDS011;7429;52.498;13.480;2023-02-01T09:03:34;13.10;;;7.13;;
14681;SDS011;7429;52.498;13.480;2023-02-01T09:06:41;10.53;;;6.77;;
14681;SDS011;7429;52.498;13.480;2023-02-01T09:09:46;17.60;;;6.80;;
14681;SDS011;7429;52.498;13.480;2023-02-01T09:12:49;14.30;;;6.83;;
14681;SDS011;7429;52.498;13.480;2023-02-01T09:15:56;9.30;;;6.07;;
14681;SDS011;7429;52.498;13.480;2023-02-01T09:19:01;9.30;;;5.63;;
14681;SDS011;7429;52.498;13.480;2023-02-01T09:22:26;7.10;;;5.03;;
14681;SDS011;7429;52.498;13.480;2023-02-01T09:25:29;9.53;;;4.90;;
14681;SDS011;7429;52.498;13.480;2023-02-01T09:28:32;11.10;;;5.63;;
14681;SDS011;7429;52.498;13.480;2023-02-01T09:31:36;9.13;;;4.60;;
14681;SDS011;7429;52.498;13.480;2023-02-01T09:34:44;9.77;;;5.03;;
14681;SDS011;7429;52.498;13.480;2023-02-01T09:37:49;6.37;;;4.87;;
14681;SDS011;7429;52.498;13.480;2023-02-01T09:40:52;11.57;;;5.43;;
14681;SDS011;7429;52.498;13.480;2023-02-01T09:43:58;12.47;;;5.33;;
14681;SDS011;7429;52.498;13.480;2023-02-01T09:47:11;8.07;;;4.83;;
14681;SDS011;7429;52.498;13.480;2023-02-01T09:50:17;4.90;;;4.17;;
14681;SDS011;7429;52.498;13.480;2023-02-01T09:53:27;4.00;;;3.60;;
14681;SDS011;7429;52.498;13.480;2023-02-01T09:56:35;7.00;;;4.80;;
14681;SDS011;7429;52.498;13.480;2023-02-01T09:59:46;8.80;;;5.63;;
14681;SDS011;7429;52.498;13.480;2023-02-01T10:02:53;5.67;;;5.23;;
14681;SDS011;7429;52.498;13.480;2023-02-01T10:06:01;5.83;;;4.27;;
14681;SDS011;7429;52.498;13.480;2023-02-01T10:09:24;6.37;;;5.87;;
14681;SDS011;7429;52.498;13.480;2023-02-01T10:12:56;7.13;;;4.43;;
14681;SDS011;7429;52.498;13.480;2023-02-01T10:16:17;9.20;;;5.77;;
14681;SDS011;7429;52.498;13.480;2023-02-01T10:19:35;11.20;;;6.10;;
14681;SDS011;7429;52.498;13.480;2023-02-01T10:22:50;7.70;;;4.80;;
14681;SDS011;7429;52.498;13.480;2023-02-01T10:26:25;10.93;;;5.27;;
14681;SDS011;7429;52.498;13.480;2023-02-01T10:29:39;9.33;;;5.10;;
14681;SDS011;7429;52.498;13.480;2023-02-01T10:32:47;6.57;;;4.37;;
14681;SDS011;7429;52.498;13.480;2023-02-01T10:35:58;6.83;;;5.57;;
14681;SDS011;7429;52.498;13.480;2023-02-01T10:39:11;8.97;;;4.00;;
14681;SDS011;7429;52.498;13.480;2023-02-01T10:42:23;8.67;;;4.90;;
14681;SDS011;7429;52.498;13.480;2023-02-01T10:45:30;8.13;;;4.37;;
14681;SDS011;7429;52.498;13.480;2023-02-01T10:48:36;11.07;;;4.73;;
14681;SDS011;7429;52.498;13.480;2023-02-01T10:51:43;8.40;;;5.03;;
14681;SDS011;7429;52.498;13.480;2023-02-01T10:54:50;8.40;;;5.57;;
14681;SDS011;7429;52.498;13.480;2023-02-01T10:57:58;13.10;;;5.60;;
14681;SDS011;7429;52.498;13.480;2023-02-01T11:01:03;7.17;;;5.00;;
14681;SDS011;7429;52.498;13.480;2023-02-01T11:04:09;6.10;;;4.50;;
14681;SDS011;7429;52.498;13.480;2023-02-01T11:07:16;7.87;;;5.17;;
14681;SDS011;7429;52.498;13.480;2023-02-01T11:10:35;10.03;;;4.60;;
14681;SDS011;7429;52.498;13.480;2023-02-01T11:13:43;5.70;;;4.43;;
14681;SDS011;7429;52.498;13.480;2023-02-01T11:16:57;9.00;;;5.07;;
14681;SDS011;7429;52.498;13.480;2023-02-01T11:20:11;8.23;;;4.40;;
14681;SDS011;7429;52.498;13.480;2023-02-01T11:23:21;8.73;;;4.47;;
14681;SDS011;7429;52.498;13.480;2023-02-01T11:26:26;16.07;;;4.80;;
14681;SDS011;7429;52.498;13.480;2023-02-01T11:29:32;13.13;;;6.00;;
14681;SDS011;7429;52.498;13.480;2023-02-01T11:32:43;9.90;;;5.13;;
14681;SDS011;7429;52.498;13.480;2023-02-01T11:35:49;14.93;;;5.30;;
14681;SDS011;7429;52.498;13.480;2023-02-01T11:38:53;21.10;;;5.63;;
14681;SDS011;7429;52.498;13.480;2023-02-01T11:42:12;12.77;;;5.83;;
14681;SDS011;7429;52.498;13.480;2023-02-01T11:45:20;17.23;;;4.90;;
14681;SDS011;7429;52.498;13.480;2023-02-01T11:48:30;13.77;;;5.80;;
14681;SDS011;7429;52.498;13.480;2023-02-01T11:51:39;13.03;;;5.83;;
14681;SDS011;7429;52.498;13.480;2023-02-01T11:54:58;12.10;;;6.93;;
14681;SDS011;7429;52.498;13.480;2023-02-01T11:58:37;11.47;;;4.80;;
14681;SDS011;7429;52.498;13.480;2023-02-01T12:02:07;10.70;;;4.63;;
14681;SDS011;7429;52.498;13.480;2023-02-01T12:05:41;13.47;;;6.37;;
14681;SDS011;7429;52.498;13.480;2023-02-01T12:08:58;11.83;;;5.20;;
14681;SDS011;7429;52.498;13.480;2023-02-01T12:12:21;12.17;;;6.80;;
14681;SDS011;7429;52.498;13.480;2023-02-01T12:15:32;14.50;;;6.47;;
14681;SDS011;7429;52.498;13.480;2023-02-01T12:19:03;11.67;;;6.20;;
14681;SDS011;7429;52.498;13.480;2023-02-01T12:22:39;11.07;;;4.70;;
14681;SDS011;7429;52.498;13.480;2023-02-01T12:26:02;9.23;;;5.00;;
14681;SDS011;7429;52.498;13.480;2023-02-01T12:29:37;9.23;;;4.27;;
14681;SDS011;7429;52.498;13.480;2023-02-01T12:33:03;8.80;;;5.13;;
14681;SDS011;7429;52.498;13.480;2023-02-01T12:36:21;15.73;;;5.00;;
14681;SDS011;7429;52.498;13.480;2023-02-01T12:39:32;18.10;;;5.63;;
14681;SDS011;7429;52.498;13.480;2023-02-01T12:42:43;19.27;;;5.20;;
14681;SDS011;7429;52.498;13.480;2023-02-01T12:45:55;8.30;;;3.83;;
14681;SDS011;7429;52.498;13.480;2023-02-01T12:49:09;12.90;;;5.47;;
14681;SDS011;7429;52.498;13.480;2023-02-01T12:52:23;16.77;;;4.90;;
14681;SDS011;7429;52.498;13.480;2023-02-01T12:55:38;10.80;;;4.50;;
14681;SDS011;7429;52.498;13.480;2023-02-01T12:58:48;10.63;;;5.87;;
14681;SDS011;7429;52.498;13.480;2023-02-01T13:01:59;10.07;;;4.97;;
14681;SDS011;7429;52.498;13.480;2023-02-01T13:05:18;16.17;;;4.90;;
14681;SDS011;7429;52.498;13.480;2023-02-01T13:08:25;10.10;;;4.90;;
14681;SDS011;7429;52.498;13.480;2023-02-01T13:11:39;11.80;;;4.90;;
14681;SDS011;7429;52.498;13.480;2023-02-01T13:14:49;9.17;;;4.73;;
14681;SDS011;7429;52.498;13.480;2023-02-01T13:18:00;12.47;;;4.87;;
14681;SDS011;7429;52.498;13.480;2023-02-01T13:21:08;8.13;;;4.13;;
14681;SDS011;7429;52.498;13.480;2023-02-01T13:24:22;14.73;;;5.33;;
14681;SDS011;7429;52.498;13.480;2023-02-01T13:27:36;10.73;;;5.93;;
14681;SDS011;7429;52.498;13.480;2023-02-01T13:30:48;14.83;;;5.83;;
14681;SDS011;7429;52.498;13.480;2023-02-01T13:34:33;13.63;;;4.83;;
14681;SDS011;7429;52.498;13.480;2023-02-01T13:37:56;9.83;;;4.47;;
14681;SDS011;7429;52.498;13.480;2023-02-01T13:41:21;11.47;;;4.60;;
14681;SDS011;7429;52.498;13.480;2023-02-01T13:44:37;10.40;;;5.03;;
14681;SDS011;7429;52.498;13.480;2023-02-01T13:47:45;14.27;;;5.47;;
14681;SDS011;7429;52.498;13.480;2023-02-01T13:50:54;11.43;;;4.70;;
14681;SDS011;7429;52.498;13.480;2023-02-01T13:54:00;7.43;;;4.77;;
14681;SDS011;7429;52.498;13.480;2023-02-01T13:57:06;16.97;;;5.20;;
14681;SDS011;7429;52.498;13.480;2023-02-01T14:00:38;14.00;;;4.77;;
14681;SDS011;7429;52.498;13.480;2023-02-01T14:03:43;10.77;;;5.80;;
14681;SDS011;7429;52.498;13.480;2023-02-01T14:06:47;12.20;;;5.70;;
14681;SDS011;7429;52.498;13.480;2023-02-01T14:09:58;13.13;;;5.53;;
14681;SDS011;7429;52.498;13.480;2023-02-01T14:13:58;15.30;;;5.17;;
14681;SDS011;7429;52.498;13.480;2023-02-01T14:17:45;11.83;;;5.10;;
14681;SDS011;7429;52.498;13.480;2023-02-01T14:20:49;20.87;;;5.37;;
14681;SDS011;7429;52.498;13.480;2023-02-01T14:23:57;15.10;;;6.80;;
14681;SDS011;7429;52.498;13.480;2023-02-01T14:27:07;12.03;;;4.97;;
14681;SDS011;7429;52.498;13.480;2023-02-01T14:30:24;11.57;;;6.13;;
14681;SDS011;7429;52.498;13.480;2023-02-01T14:33:27;11.77;;;6.10;;
14681;SDS011;7429;52.498;13.480;2023-02-01T14:36:41;11.27;;;6.23;;
14681;SDS011;7429;52.498;13.480;2023-02-01T14:39:52;15.97;;;5.40;;
14681;SDS011;7429;52.498;13.480;2023-02-01T14:42:59;11.57;;;5.47;;
14681;SDS011;7429;52.498;13.480;2023-02-01T14:46:04;10.83;;;5.57;;
14681;SDS011;7429;52.498;13.480;2023-02-01T14:49:09;11.10;;;6.53;;
14681;SDS011;7429;52.498;13.480;2023-02-01T14:52:14;16.50;;;6.87;;
14681;SDS011;7429;52.498;13.480;2023-02-01T14:55:24;16.90;;;6.77;;
14681;SDS011;7429;52.498;13.480;2023-02-01T14:58:35;15.50;;;6.70;;
14681;SDS011;7429;52.498;13.480;2023-02-01T15:01:48;17.47;;;6.37;;
14681;SDS011;7429;52.498;13.480;2023-02-01T15:04:55;9.77;;;5.20;;
14681;SDS011;7429;52.498;13.480;2023-02-01T15:08:02;11.53;;;5.43;;
14681;SDS011;7429;52.498;13.480;2023-02-01T15:11:16;13.70;;;4.87;;
14681;SDS011;7429;52.498;13.480;2023-02-01T15:14:19;13.23;;;4.77;;
14681;SDS011;7429;52.498;13.480;2023-02-01T15:17:24;6.47;;;4.33;;
14681;SDS011;7429;52.498;13.480;2023-02-01T15:20:35;6.17;;;5.10;;
14681;SDS011;7429;52.498;13.480;2023-02-01T15:23:47;6.87;;;6.27;;
14681;SDS011;7429;52.498;13.480;2023-02-01T15:26:53;9.67;;;4.57;;
14681;SDS011;7429;52.498;13.480;2023-02-01T15:30:04;7.60;;;4.33;;
14681;SDS011;7429;52.498;13.480;2023-02-01T15:33:15;4.93;;;4.50;;
14681;SDS011;7429;52.498;13.480;2023-02-01T15:36:27;6.70;;;4.93;;
14681;SDS011;7429;52.498;13.480;2023-02-01T15:39:31;6.33;;;4.87;;
14681;SDS011;7429;52.498;13.480;2023-02-01T15:42:36;8.90;;;5.33;;
14681;SDS011;7429;52.498;13.480;2023-02-01T15:45:55;6.43;;;5.87;;
14681;SDS011;7429;52.498;13.480;2023-02-01T15:49:01;6.37;;;5.30;;
14681;SDS011;7429;52.498;13.480;2023-02-01T15:52:14;5.00;;;4.03;;
14681;SDS011;7429;52.498;13.480;2023-02-01T15:55:29;4.90;;;4.47;;
14681;SDS011;7429;52.498;13.480;2023-02-01T15:58:42;4.80;;;4.50;;
14681;SDS011;7429;52.498;13.480;2023-02-01T16:01:50;4.10;;;3.90;;
14681;SDS011;7429;52.498;13.480;2023-02-01T16:04:55;7.60;;;5.13;;
14681;SDS011;7429;52.498;13.480;2023-02-01T16:08:00;4.13;;;3.83;;
14681;SDS011;7429;52.498;13.480;2023-02-01T16:11:23;7.77;;;5.00;;
14681;SDS011;7429;52.498;13.480;2023-02-01T16:14:33;5.97;;;5.27;;
14681;SDS011;7429;52.498;13.480;2023-02-01T16:17:37;5.60;;;5.30;;
14681;SDS011;7429;52.498;13.480;2023-02-01T16:20:41;4.77;;;4.30;;
14681;SDS011;7429;52.498;13.480;2023-02-01T16:23:47;4.07;;;3.73;;
14681;SDS011;7429;52.498;13.480;2023-02-01T16:26:52;4.00;;;3.73;;
14681;SDS011;7429;52.498;13.480;2023-02-01T16:29:56;4.03;;;3.73;;
14681;SDS011;7429;52.498;13.480;2023-02-01T16:33:02;3.93;;;3.73;;
14681;SDS011;7429;52.498;13.480;2023-02-01T16:36:08;8.00;;;6.07;;
14681;SDS011;7429;52.498;13.480;2023-02-01T16:39:12;4.63;;;4.23;;
14681;SDS011;7429;52.498;13.480;2023-02-01T16:42:16;5.13;;;4.73;;
14681;SDS011;7429;52.498;13.480;2023-02-01T16:45:19;5.80;;;4.57;;
14681;SDS011;7429;52.498;13.480;2023-02-01T16:48:23;4.03;;;3.83;;
14681;SDS011;7429;52.498;13.480;2023-02-01T16:51:31;4.30;;;3.97;;
14681;SDS011;7429;52.498;13.480;2023-02-01T16:54:36;9.23;;;5.43;;
14681;SDS011;7429;52.498;13.480;2023-02-01T16:57:39;4.83;;;4.43;;
14681;SDS011;7429;52.498;13.480;2023-02-01T17:00:43;4.17;;;3.37;;
14681;SDS011;7429;52.498;13.480;2023-02-01T17:03:47;6.60;;;5.57;;
14681;SDS011;7429;52.498;13.480;2023-02-01T17:06:52;3.97;;;3.67;;
14681;SDS011;7429;52.498;13.480;2023-02-01T17:09:59;5.90;;;5.30;;
14681;SDS011;7429;52.498;13.480;2023-02-01T17:13:04;5.80;;;4.40;;
14681;SDS011;7429;52.498;13.480;2023-02-01T17:16:12;7.03;;;5.60;;
14681;SDS011;7429;52.498;13.480;2023-02-01T17:19:24;9.10;;;7.53;;
14681;SDS011;7429;52.498;13.480;2023-02-01T17:22:29;8.47;;;5.60;;
14681;SDS011;7429;52.498;13.480;2023-02-01T17:25:32;6.03;;;4.93;;
14681;SDS011;7429;52.498;13.480;2023-02-01T17:28:35;5.27;;;4.03;;
14681;SDS011;7429;52.498;13.480;2023-02-01T17:31:39;7.00;;;4.07;;
14681;SDS011;7429;52.498;13.480;2023-02-01T17:34:45;6.03;;;4.53;;
14681;SDS011;7429;52.498;13.480;2023-02-01T17:37:50;5.37;;;4.77;;
14681;SDS011;7429;52.498;13.480;2023-02-01T17:40:54;16.03;;;5.43;;
14681;SDS011;7429;52.498;13.480;2023-02-01T17:43:57;12.50;;;4.90;;
14681;SDS011;7429;52.498;13.480;2023-02-01T17:47:01;13.33;;;5.43;;
14681;SDS011;7429;52.498;13.480;2023-02-01T17:50:04;7.60;;;4.67;;
14681;SDS011;7429;52.498;13.480;2023-02-01T17:53:10;12.03;;;6.57;;
14681;SDS011;7429;52.498;13.480;2023-02-01T17:56:14;26.23;;;15.27;;
14681;SDS011;7429;52.498;13.480;2023-02-01T17:59:19;11.97;;;7.30;;
14681;SDS011;7429;52.498;13.480;2023-02-01T18:02:24;6.47;;;4.87;;
14681;SDS011;7429;52.498;13.480;2023-02-01T18:05:32;9.73;;;5.73;;
14681;SDS011;7429;52.498;13.480;2023-02-01T18:08:43;10.73;;;5.30;;
14681;SDS011;7429;52.498;13.480;2023-02-01T18:11:47;5.93;;;4.10;;
14681;SDS011;7429;52.498;13.480;2023-02-01T18:14:50;9.27;;;7.33;;
14681;SDS011;7429;52.498;13.480;2023-02-01T18:17:54;13.23;;;7.07;;
14681;SDS011;7429;52.498;13.480;2023-02-01T18:20:57;5.67;;;5.13;;
14681;SDS011;7429;52.498;13.480;2023-02-01T18:24:02;7.97;;;5.17;;
14681;SDS011;7429;52.498;13.480;2023-02-01T18:27:06;18.30;;;9.17;;
14681;SDS011;7429;52.498;13.480;2023-02-01T18:30:10;11.60;;;8.47;;
14681;SDS011;7429;52.498;13.480;2023-02-01T18:33:19;12.83;;;5.17;;
14681;SDS011;7429;52.498;13.480;2023-02-01T18:36:23;8.67;;;5.83;;
14681;SDS011;7429;52.498;13.480;2023-02-01T18:39:28;11.67;;;5.97;;
14681;SDS011;7429;52.498;13.480;2023-02-01T18:42:31;12.37;;;5.47;;
14681;SDS011;7429;52.498;13.480;2023-02-01T18:45:37;8.57;;;4.63;;
14681;SDS011;7429;52.498;13.480;2023-02-01T18:48:42;8.07;;;5.20;;
14681;SDS011;7429;52.498;13.480;2023-02-01T18:51:48;11.60;;;6.50;;